sensor_id;sensor_type;location;lat;lon;timestamp;P1;durP1;ratioP1;P2;durP2;ratioP2
26822;SDS011;14852;51.910;8.878;2022-07-29T00:00:51;5.72;;;1.63;;
26822;SDS011;14852;51.910;8.878;2022-07-29T00:03:16;3.58;;;1.55;;
26822;SDS011;14852;51.910;8.878;2022-07-29T00:05:42;1.55;;;1.42;;
26822;SDS011;14852;51.910;8.878;2022-07-29T00:08:08;3.60;;;1.60;;
26822;SDS011;14852;51.910;8.878;2022-07-29T00:10:34;3.90;;;1.77;;
26822;SDS011;14852;51.910;8.878;2022-07-29T00:13:00;2.50;;;1.48;;
26822;SDS011;14852;51.910;8.878;2022-07-29T00:15:26;4.13;;;1.60;;
26822;SDS011;14852;51.910;8.878;2022-07-29T00:17:52;2.90;;;1.73;;
26822;SDS011;14852;51.910;8.878;2022-07-29T00:20:18;2.60;;;1.35;;
26822;SDS011;14852;51.910;8.878;2022-07-29T00:22:44;4.07;;;1.60;;
26822;SDS011;14852;51.910;8.878;2022-07-29T00:25:09;4.93;;;2.22;;
26822;SDS011;14852;51.910;8.878;2022-07-29T00:27:37;4.18;;;1.67;;
26822;SDS011;14852;51.910;8.878;2022-07-29T00:30:04;2.58;;;1.25;;
26822;SDS011;14852;51.910;8.878;2022-07-29T00:32:31;3.38;;;1.40;;
26822;SDS011;14852;51.910;8.878;2022-07-29T00:34:57;4.55;;;1.40;;
26822;SDS011;14852;51.910;8.878;2022-07-29T00:37:41;4.30;;;1.98;;
26822;SDS011;14852;51.910;8.878;2022-07-29T00:40:07;1.98;;;1.38;;
26822;SDS011;14852;51.910;8.878;2022-07-29T00:42:47;2.35;;;1.40;;
26822;SDS011;14852;51.910;8.878;2022-07-29T00:45:15;2.33;;;1.33;;
26822;SDS011;14852;51.910;8.878;2022-07-29T00:47:42;3.13;;;1.20;;
26822;SDS011;14852;51.910;8.878;2022-07-29T00:50:09;2.33;;;1.55;;
26822;SDS011;14852;51.910;8.878;2022-07-29T00:52:37;2.35;;;1.40;;
26822;SDS011;14852;51.910;8.878;2022-07-29T00:55:06;1.67;;;1.40;;
26822;SDS011;14852;51.910;8.878;2022-07-29T00:57:38;4.70;;;1.65;;
26822;SDS011;14852;51.910;8.878;2022-07-29T01:00:06;4.18;;;2.00;;
26822;SDS011;14852;51.910;8.878;2022-07-29T01:02:36;2.08;;;1.52;;
26822;SDS011;14852;51.910;8.878;2022-07-29T01:05:02;3.70;;;1.70;;
26822;SDS011;14852;51.910;8.878;2022-07-29T01:07:30;3.38;;;1.70;;
26822;SDS011;14852;51.910;8.878;2022-07-29T01:09:59;2.05;;;1.77;;
26822;SDS011;14852;51.910;8.878;2022-07-29T01:12:31;2.25;;;1.52;;
26822;SDS011;14852;51.910;8.878;2022-07-29T01:14:58;2.50;;;1.42;;
26822;SDS011;14852;51.910;8.878;2022-07-29T01:17:28;6.40;;;2.00;;
26822;SDS011;14852;51.910;8.878;2022-07-29T01:20:13;4.20;;;1.40;;
26822;SDS011;14852;51.910;8.878;2022-07-29T01:28:59;1.73;;;1.58;;
26822;SDS011;14852;51.910;8.878;2022-07-29T01:32:37;2.03;;;1.63;;
26822;SDS011;14852;51.910;8.878;2022-07-29T01:40:22;2.30;;;1.40;;
26822;SDS011;14852;51.910;8.878;2022-07-29T01:43:22;3.83;;;1.85;;
26822;SDS011;14852;51.910;8.878;2022-07-29T01:46:02;2.63;;;1.52;;
26822;SDS011;14852;51.910;8.878;2022-07-29T01:51:10;2.50;;;1.40;;
26822;SDS011;14852;51.910;8.878;2022-07-29T01:54:08;3.70;;;1.45;;
26822;SDS011;14852;51.910;8.878;2022-07-29T01:56:49;3.08;;;1.38;;
26822;SDS011;14852;51.910;8.878;2022-07-29T01:59:18;2.15;;;1.25;;
26822;SDS011;14852;51.910;8.878;2022-07-29T02:01:46;2.95;;;1.45;;
26822;SDS011;14852;51.910;8.878;2022-07-29T02:04:15;2.38;;;1.48;;
26822;SDS011;14852;51.910;8.878;2022-07-29T02:06:43;5.32;;;1.75;;
26822;SDS011;14852;51.910;8.878;2022-07-29T02:09:10;2.13;;;1.40;;
26822;SDS011;14852;51.910;8.878;2022-07-29T02:11:39;2.20;;;1.35;;
26822;SDS011;14852;51.910;8.878;2022-07-29T02:14:10;4.22;;;1.40;;
26822;SDS011;14852;51.910;8.878;2022-07-29T02:16:39;3.20;;;1.80;;
26822;SDS011;14852;51.910;8.878;2022-07-29T02:19:06;1.88;;;1.33;;
26822;SDS011;14852;51.910;8.878;2022-07-29T02:21:34;3.15;;;1.10;;
26822;SDS011;14852;51.910;8.878;2022-07-29T02:24:01;1.30;;;1.00;;
26822;SDS011;14852;51.910;8.878;2022-07-29T02:26:29;3.60;;;1.50;;
26822;SDS011;14852;51.910;8.878;2022-07-29T02:28:57;7.13;;;1.88;;
26822;SDS011;14852;51.910;8.878;2022-07-29T02:31:27;3.45;;;1.70;;
26822;SDS011;14852;51.910;8.878;2022-07-29T02:34:00;3.30;;;1.50;;
26822;SDS011;14852;51.910;8.878;2022-07-29T02:36:29;3.92;;;1.50;;
26822;SDS011;14852;51.910;8.878;2022-07-29T02:38:56;3.00;;;1.55;;
26822;SDS011;14852;51.910;8.878;2022-07-29T02:44:02;3.75;;;1.88;;
26822;SDS011;14852;51.910;8.878;2022-07-29T02:46:35;3.38;;;1.38;;
26822;SDS011;14852;51.910;8.878;2022-07-29T02:58:10;4.35;;;1.60;;
26822;SDS011;14852;51.910;8.878;2022-07-29T03:00:53;2.42;;;1.42;;
26822;SDS011;14852;51.910;8.878;2022-07-29T03:03:37;3.20;;;1.60;;
26822;SDS011;14852;51.910;8.878;2022-07-29T03:06:04;3.88;;;1.42;;
26822;SDS011;14852;51.910;8.878;2022-07-29T03:08:32;2.10;;;1.30;;
26822;SDS011;14852;51.910;8.878;2022-07-29T03:10:59;5.57;;;1.90;;
26822;SDS011;14852;51.910;8.878;2022-07-29T03:13:27;3.00;;;1.70;;
26822;SDS011;14852;51.910;8.878;2022-07-29T03:15:54;2.15;;;1.23;;
26822;SDS011;14852;51.910;8.878;2022-07-29T03:18:22;4.63;;;1.75;;
26822;SDS011;14852;51.910;8.878;2022-07-29T03:20:48;2.20;;;1.50;;
26822;SDS011;14852;51.910;8.878;2022-07-29T03:23:18;2.58;;;1.80;;
26822;SDS011;14852;51.910;8.878;2022-07-29T03:25:47;2.72;;;1.58;;
26822;SDS011;14852;51.910;8.878;2022-07-29T03:28:14;3.92;;;1.85;;
26822;SDS011;14852;51.910;8.878;2022-07-29T03:30:40;2.40;;;1.73;;
26822;SDS011;14852;51.910;8.878;2022-07-29T03:33:06;2.22;;;1.83;;
26822;SDS011;14852;51.910;8.878;2022-07-29T03:35:31;3.30;;;1.50;;
26822;SDS011;14852;51.910;8.878;2022-07-29T03:37:58;2.50;;;1.33;;
26822;SDS011;14852;51.910;8.878;2022-07-29T03:40:26;2.60;;;1.52;;
26822;SDS011;14852;51.910;8.878;2022-07-29T03:43:16;2.40;;;1.60;;
26822;SDS011;14852;51.910;8.878;2022-07-29T03:45:45;2.65;;;1.58;;
26822;SDS011;14852;51.910;8.878;2022-07-29T03:48:17;2.78;;;1.73;;
26822;SDS011;14852;51.910;8.878;2022-07-29T03:50:46;5.43;;;1.55;;
26822;SDS011;14852;51.910;8.878;2022-07-29T03:53:14;3.67;;;1.50;;
26822;SDS011;14852;51.910;8.878;2022-07-29T03:55:41;5.20;;;3.10;;
26822;SDS011;14852;51.910;8.878;2022-07-29T03:58:12;3.03;;;2.13;;
26822;SDS011;14852;51.910;8.878;2022-07-29T04:00:39;4.03;;;1.40;;
26822;SDS011;14852;51.910;8.878;2022-07-29T04:03:08;3.13;;;1.60;;
26822;SDS011;14852;51.910;8.878;2022-07-29T04:05:34;7.05;;;1.80;;
26822;SDS011;14852;51.910;8.878;2022-07-29T04:08:00;3.85;;;2.38;;
26822;SDS011;14852;51.910;8.878;2022-07-29T04:10:26;4.28;;;1.65;;
26822;SDS011;14852;51.910;8.878;2022-07-29T04:12:51;2.08;;;1.23;;
26822;SDS011;14852;51.910;8.878;2022-07-29T04:15:18;2.40;;;1.75;;
26822;SDS011;14852;51.910;8.878;2022-07-29T04:17:43;3.40;;;1.48;;
26822;SDS011;14852;51.910;8.878;2022-07-29T04:20:09;3.22;;;1.50;;
26822;SDS011;14852;51.910;8.878;2022-07-29T04:22:38;3.25;;;1.45;;
26822;SDS011;14852;51.910;8.878;2022-07-29T04:25:05;2.38;;;1.60;;
26822;SDS011;14852;51.910;8.878;2022-07-29T04:27:31;6.10;;;1.70;;
26822;SDS011;14852;51.910;8.878;2022-07-29T04:29:57;4.90;;;2.15;;
26822;SDS011;14852;51.910;8.878;2022-07-29T04:32:23;3.00;;;1.63;;
26822;SDS011;14852;51.910;8.878;2022-07-29T04:34:50;3.88;;;1.50;;
26822;SDS011;14852;51.910;8.878;2022-07-29T04:37:16;4.22;;;1.73;;
26822;SDS011;14852;51.910;8.878;2022-07-29T04:39:42;4.43;;;1.90;;
26822;SDS011;14852;51.910;8.878;2022-07-29T04:42:07;3.30;;;1.63;;
26822;SDS011;14852;51.910;8.878;2022-07-29T04:44:33;2.65;;;1.60;;
26822;SDS011;14852;51.910;8.878;2022-07-29T04:46:59;8.75;;;2.00;;
26822;SDS011;14852;51.910;8.878;2022-07-29T04:49:25;2.58;;;1.58;;
26822;SDS011;14852;51.910;8.878;2022-07-29T04:51:51;3.33;;;1.65;;
26822;SDS011;14852;51.910;8.878;2022-07-29T04:54:17;6.63;;;2.00;;
26822;SDS011;14852;51.910;8.878;2022-07-29T04:56:43;3.63;;;2.00;;
26822;SDS011;14852;51.910;8.878;2022-07-29T04:59:08;3.30;;;1.75;;
26822;SDS011;14852;51.910;8.878;2022-07-29T05:01:34;5.30;;;1.73;;
26822;SDS011;14852;51.910;8.878;2022-07-29T05:04:00;4.70;;;1.65;;
26822;SDS011;14852;51.910;8.878;2022-07-29T05:06:26;5.75;;;2.03;;
26822;SDS011;14852;51.910;8.878;2022-07-29T05:08:51;3.97;;;2.25;;
26822;SDS011;14852;51.910;8.878;2022-07-29T05:11:17;3.88;;;1.77;;
26822;SDS011;14852;51.910;8.878;2022-07-29T05:13:43;3.28;;;1.58;;
26822;SDS011;14852;51.910;8.878;2022-07-29T05:16:09;2.22;;;1.60;;
26822;SDS011;14852;51.910;8.878;2022-07-29T05:18:35;3.75;;;1.90;;
26822;SDS011;14852;51.910;8.878;2022-07-29T05:21:00;3.95;;;1.75;;
26822;SDS011;14852;51.910;8.878;2022-07-29T05:23:26;3.00;;;1.60;;
26822;SDS011;14852;51.910;8.878;2022-07-29T05:25:52;3.65;;;1.60;;
26822;SDS011;14852;51.910;8.878;2022-07-29T05:28:18;5.05;;;1.70;;
26822;SDS011;14852;51.910;8.878;2022-07-29T05:30:43;3.70;;;1.75;;
26822;SDS011;14852;51.910;8.878;2022-07-29T05:33:10;2.60;;;1.88;;
26822;SDS011;14852;51.910;8.878;2022-07-29T05:35:35;3.05;;;1.98;;
26822;SDS011;14852;51.910;8.878;2022-07-29T05:38:02;4.65;;;1.73;;
26822;SDS011;14852;51.910;8.878;2022-07-29T05:40:28;2.10;;;1.55;;
26822;SDS011;14852;51.910;8.878;2022-07-29T05:42:54;4.53;;;2.25;;
26822;SDS011;14852;51.910;8.878;2022-07-29T05:45:21;3.13;;;1.60;;
26822;SDS011;14852;51.910;8.878;2022-07-29T05:47:46;2.97;;;1.95;;
26822;SDS011;14852;51.910;8.878;2022-07-29T05:50:12;2.28;;;1.50;;
26822;SDS011;14852;51.910;8.878;2022-07-29T05:52:38;4.68;;;1.90;;
26822;SDS011;14852;51.910;8.878;2022-07-29T05:55:04;3.38;;;1.70;;
26822;SDS011;14852;51.910;8.878;2022-07-29T05:57:30;5.38;;;2.17;;
26822;SDS011;14852;51.910;8.878;2022-07-29T05:59:57;5.13;;;2.33;;
26822;SDS011;14852;51.910;8.878;2022-07-29T06:02:23;4.55;;;2.22;;
26822;SDS011;14852;51.910;8.878;2022-07-29T06:04:49;3.45;;;1.60;;
26822;SDS011;14852;51.910;8.878;2022-07-29T06:07:15;6.35;;;1.80;;
26822;SDS011;14852;51.910;8.878;2022-07-29T06:09:41;5.53;;;1.95;;
26822;SDS011;14852;51.910;8.878;2022-07-29T06:12:07;8.07;;;2.05;;
26822;SDS011;14852;51.910;8.878;2022-07-29T06:14:34;2.38;;;1.80;;
26822;SDS011;14852;51.910;8.878;2022-07-29T06:17:00;3.53;;;1.88;;
26822;SDS011;14852;51.910;8.878;2022-07-29T06:19:26;4.35;;;1.88;;
26822;SDS011;14852;51.910;8.878;2022-07-29T06:21:52;4.97;;;1.95;;
26822;SDS011;14852;51.910;8.878;2022-07-29T06:24:17;3.65;;;1.75;;
26822;SDS011;14852;51.910;8.878;2022-07-29T06:26:43;8.52;;;2.20;;
26822;SDS011;14852;51.910;8.878;2022-07-29T06:29:09;5.25;;;2.00;;
26822;SDS011;14852;51.910;8.878;2022-07-29T06:31:36;5.75;;;2.22;;
26822;SDS011;14852;51.910;8.878;2022-07-29T06:34:02;4.28;;;2.35;;
26822;SDS011;14852;51.910;8.878;2022-07-29T06:36:28;5.45;;;2.22;;
26822;SDS011;14852;51.910;8.878;2022-07-29T06:38:54;5.13;;;2.40;;
26822;SDS011;14852;51.910;8.878;2022-07-29T06:41:20;2.35;;;1.73;;
26822;SDS011;14852;51.910;8.878;2022-07-29T06:43:47;3.47;;;1.77;;
26822;SDS011;14852;51.910;8.878;2022-07-29T06:46:14;3.08;;;1.65;;
26822;SDS011;14852;51.910;8.878;2022-07-29T06:48:42;5.50;;;1.95;;
26822;SDS011;14852;51.910;8.878;2022-07-29T06:51:09;4.85;;;2.03;;
26822;SDS011;14852;51.910;8.878;2022-07-29T06:53:38;5.80;;;1.88;;
26822;SDS011;14852;51.910;8.878;2022-07-29T06:56:05;5.38;;;1.90;;
26822;SDS011;14852;51.910;8.878;2022-07-29T06:58:37;3.67;;;2.20;;
26822;SDS011;14852;51.910;8.878;2022-07-29T07:01:04;5.82;;;1.67;;
26822;SDS011;14852;51.910;8.878;2022-07-29T07:03:31;5.25;;;2.20;;
26822;SDS011;14852;51.910;8.878;2022-07-29T07:05:57;4.72;;;1.90;;
26822;SDS011;14852;51.910;8.878;2022-07-29T07:08:23;5.75;;;1.83;;
26822;SDS011;14852;51.910;8.878;2022-07-29T07:10:50;3.85;;;1.88;;
26822;SDS011;14852;51.910;8.878;2022-07-29T07:13:16;4.00;;;1.80;;
26822;SDS011;14852;51.910;8.878;2022-07-29T07:15:42;3.00;;;1.80;;
26822;SDS011;14852;51.910;8.878;2022-07-29T07:18:09;2.38;;;1.85;;
26822;SDS011;14852;51.910;8.878;2022-07-29T07:20:35;5.13;;;1.58;;
26822;SDS011;14852;51.910;8.878;2022-07-29T07:23:02;4.85;;;1.90;;
26822;SDS011;14852;51.910;8.878;2022-07-29T07:25:27;3.72;;;1.85;;
26822;SDS011;14852;51.910;8.878;2022-07-29T07:27:53;3.13;;;1.50;;
26822;SDS011;14852;51.910;8.878;2022-07-29T07:30:19;2.28;;;1.58;;
26822;SDS011;14852;51.910;8.878;2022-07-29T07:32:45;4.35;;;2.20;;
26822;SDS011;14852;51.910;8.878;2022-07-29T07:35:11;2.40;;;1.58;;
26822;SDS011;14852;51.910;8.878;2022-07-29T07:37:37;3.53;;;2.13;;
26822;SDS011;14852;51.910;8.878;2022-07-29T07:40:05;5.57;;;1.98;;
26822;SDS011;14852;51.910;8.878;2022-07-29T07:42:34;4.07;;;1.83;;
26822;SDS011;14852;51.910;8.878;2022-07-29T07:45:00;2.47;;;1.52;;
26822;SDS011;14852;51.910;8.878;2022-07-29T07:47:26;3.08;;;2.00;;
26822;SDS011;14852;51.910;8.878;2022-07-29T07:49:52;3.60;;;1.75;;
26822;SDS011;14852;51.910;8.878;2022-07-29T07:52:19;2.10;;;1.35;;
26822;SDS011;14852;51.910;8.878;2022-07-29T07:54:46;2.28;;;1.58;;
26822;SDS011;14852;51.910;8.878;2022-07-29T07:57:13;3.35;;;2.00;;
26822;SDS011;14852;51.910;8.878;2022-07-29T07:59:40;3.45;;;1.80;;
26822;SDS011;14852;51.910;8.878;2022-07-29T08:02:06;3.25;;;1.67;;
26822;SDS011;14852;51.910;8.878;2022-07-29T08:04:33;6.68;;;2.05;;
26822;SDS011;14852;51.910;8.878;2022-07-29T08:06:59;3.97;;;1.77;;
26822;SDS011;14852;51.910;8.878;2022-07-29T08:09:25;5.78;;;1.80;;
26822;SDS011;14852;51.910;8.878;2022-07-29T08:11:52;4.03;;;2.00;;
26822;SDS011;14852;51.910;8.878;2022-07-29T08:14:18;1.63;;;1.38;;
26822;SDS011;14852;51.910;8.878;2022-07-29T08:16:44;2.35;;;1.58;;
26822;SDS011;14852;51.910;8.878;2022-07-29T08:19:11;3.38;;;1.50;;
26822;SDS011;14852;51.910;8.878;2022-07-29T08:21:37;2.30;;;1.58;;
26822;SDS011;14852;51.910;8.878;2022-07-29T08:24:04;3.22;;;1.88;;
26822;SDS011;14852;51.910;8.878;2022-07-29T08:26:49;2.42;;;1.40;;
26822;SDS011;14852;51.910;8.878;2022-07-29T08:29:15;2.85;;;1.50;;
26822;SDS011;14852;51.910;8.878;2022-07-29T08:31:41;3.15;;;1.52;;
26822;SDS011;14852;51.910;8.878;2022-07-29T08:34:07;3.13;;;2.00;;
26822;SDS011;14852;51.910;8.878;2022-07-29T08:36:33;3.17;;;1.65;;
26822;SDS011;14852;51.910;8.878;2022-07-29T08:38:59;3.47;;;2.00;;
26822;SDS011;14852;51.910;8.878;2022-07-29T08:41:26;3.85;;;1.92;;
26822;SDS011;14852;51.910;8.878;2022-07-29T08:43:52;2.90;;;1.70;;
26822;SDS011;14852;51.910;8.878;2022-07-29T08:46:18;3.10;;;2.22;;
26822;SDS011;14852;51.910;8.878;2022-07-29T08:48:47;2.00;;;1.40;;
26822;SDS011;14852;51.910;8.878;2022-07-29T08:51:14;2.13;;;1.58;;
26822;SDS011;14852;51.910;8.878;2022-07-29T08:53:42;3.40;;;1.80;;
26822;SDS011;14852;51.910;8.878;2022-07-29T08:56:13;3.03;;;1.60;;
26822;SDS011;14852;51.910;8.878;2022-07-29T08:58:44;3.75;;;1.88;;
26822;SDS011;14852;51.910;8.878;2022-07-29T09:01:13;4.25;;;1.63;;
26822;SDS011;14852;51.910;8.878;2022-07-29T09:03:45;2.05;;;1.30;;
26822;SDS011;14852;51.910;8.878;2022-07-29T09:06:14;4.35;;;1.90;;
26822;SDS011;14852;51.910;8.878;2022-07-29T09:08:44;2.67;;;2.20;;
26822;SDS011;14852;51.910;8.878;2022-07-29T09:11:10;4.80;;;2.42;;
26822;SDS011;14852;51.910;8.878;2022-07-29T09:13:37;3.78;;;1.80;;
26822;SDS011;14852;51.910;8.878;2022-07-29T09:16:03;5.45;;;1.80;;
26822;SDS011;14852;51.910;8.878;2022-07-29T09:18:33;3.20;;;1.65;;
26822;SDS011;14852;51.910;8.878;2022-07-29T09:21:06;2.92;;;1.88;;
26822;SDS011;14852;51.910;8.878;2022-07-29T09:26:28;2.50;;;1.48;;
26822;SDS011;14852;51.910;8.878;2022-07-29T09:28:56;3.13;;;1.60;;
26822;SDS011;14852;51.910;8.878;2022-07-29T09:31:32;3.80;;;1.90;;
26822;SDS011;14852;51.910;8.878;2022-07-29T09:33:59;6.88;;;1.77;;
26822;SDS011;14852;51.910;8.878;2022-07-29T09:36:25;1.80;;;1.60;;
26822;SDS011;14852;51.910;8.878;2022-07-29T09:38:58;4.40;;;1.67;;
26822;SDS011;14852;51.910;8.878;2022-07-29T09:41:25;4.13;;;1.70;;
26822;SDS011;14852;51.910;8.878;2022-07-29T09:43:53;3.35;;;2.03;;
26822;SDS011;14852;51.910;8.878;2022-07-29T09:46:23;3.40;;;1.90;;
26822;SDS011;14852;51.910;8.878;2022-07-29T09:49:05;4.05;;;2.20;;
26822;SDS011;14852;51.910;8.878;2022-07-29T09:51:37;5.72;;;2.45;;
26822;SDS011;14852;51.910;8.878;2022-07-29T09:54:20;3.50;;;2.00;;
26822;SDS011;14852;51.910;8.878;2022-07-29T09:56:51;4.40;;;1.80;;
26822;SDS011;14852;51.910;8.878;2022-07-29T09:59:18;2.60;;;2.05;;
26822;SDS011;14852;51.910;8.878;2022-07-29T10:01:47;2.63;;;2.17;;
26822;SDS011;14852;51.910;8.878;2022-07-29T10:04:17;2.88;;;2.00;;
26822;SDS011;14852;51.910;8.878;2022-07-29T10:09:24;4.63;;;2.20;;
26822;SDS011;14852;51.910;8.878;2022-07-29T10:12:06;1.95;;;1.65;;
26822;SDS011;14852;51.910;8.878;2022-07-29T10:14:33;4.68;;;2.20;;
26822;SDS011;14852;51.910;8.878;2022-07-29T10:17:00;5.70;;;2.70;;
26822;SDS011;14852;51.910;8.878;2022-07-29T10:19:28;3.40;;;1.83;;
26822;SDS011;14852;51.910;8.878;2022-07-29T10:21:58;3.17;;;2.45;;
26822;SDS011;14852;51.910;8.878;2022-07-29T10:24:28;2.20;;;1.70;;
26822;SDS011;14852;51.910;8.878;2022-07-29T10:26:56;2.25;;;2.03;;
26822;SDS011;14852;51.910;8.878;2022-07-29T10:29:25;5.03;;;1.90;;
26822;SDS011;14852;51.910;8.878;2022-07-29T10:32:13;2.53;;;1.70;;
26822;SDS011;14852;51.910;8.878;2022-07-29T10:35:08;5.43;;;2.42;;
26822;SDS011;14852;51.910;8.878;2022-07-29T10:44:01;5.72;;;2.55;;
26822;SDS011;14852;51.910;8.878;2022-07-29T10:46:38;2.50;;;2.00;;
26822;SDS011;14852;51.910;8.878;2022-07-29T10:51:50;2.65;;;1.60;;
26822;SDS011;14852;51.910;8.878;2022-07-29T10:59:44;4.60;;;2.20;;
26822;SDS011;14852;51.910;8.878;2022-07-29T11:05:07;4.22;;;1.92;;
26822;SDS011;14852;51.910;8.878;2022-07-29T11:10:38;3.22;;;2.30;;
26822;SDS011;14852;51.910;8.878;2022-07-29T11:13:05;3.88;;;2.40;;
26822;SDS011;14852;51.910;8.878;2022-07-29T11:15:51;4.03;;;2.35;;
26822;SDS011;14852;51.910;8.878;2022-07-29T11:18:22;3.55;;;2.33;;
26822;SDS011;14852;51.910;8.878;2022-07-29T11:20:49;4.72;;;2.70;;
26822;SDS011;14852;51.910;8.878;2022-07-29T11:31:17;4.03;;;2.75;;
26822;SDS011;14852;51.910;8.878;2022-07-29T11:33:55;3.10;;;2.65;;
26822;SDS011;14852;51.910;8.878;2022-07-29T11:36:22;4.75;;;2.67;;
26822;SDS011;14852;51.910;8.878;2022-07-29T11:38:48;3.75;;;2.40;;
26822;SDS011;14852;51.910;8.878;2022-07-29T11:49:19;4.07;;;2.75;;
26822;SDS011;14852;51.910;8.878;2022-07-29T11:51:56;3.20;;;2.63;;
26822;SDS011;14852;51.910;8.878;2022-07-29T11:54:34;2.47;;;2.08;;
26822;SDS011;14852;51.910;8.878;2022-07-29T11:57:01;3.67;;;2.47;;
26822;SDS011;14852;51.910;8.878;2022-07-29T11:59:27;8.68;;;3.30;;
26822;SDS011;14852;51.910;8.878;2022-07-29T12:01:55;4.70;;;2.38;;
26822;SDS011;14852;51.910;8.878;2022-07-29T12:04:22;4.00;;;2.65;;
26822;SDS011;14852;51.910;8.878;2022-07-29T12:06:49;4.13;;;2.58;;
26822;SDS011;14852;51.910;8.878;2022-07-29T12:09:16;4.18;;;2.50;;
26822;SDS011;14852;51.910;8.878;2022-07-29T12:11:43;5.03;;;2.35;;
26822;SDS011;14852;51.910;8.878;2022-07-29T12:14:30;4.63;;;2.67;;
26822;SDS011;14852;51.910;8.878;2022-07-29T12:16:58;5.63;;;2.50;;
26822;SDS011;14852;51.910;8.878;2022-07-29T12:19:25;3.63;;;2.72;;
26822;SDS011;14852;51.910;8.878;2022-07-29T12:21:53;5.55;;;2.67;;
26822;SDS011;14852;51.910;8.878;2022-07-29T12:24:20;4.88;;;3.08;;
26822;SDS011;14852;51.910;8.878;2022-07-29T12:29:21;4.18;;;2.40;;
26822;SDS011;14852;51.910;8.878;2022-07-29T12:31:51;3.45;;;2.45;;
26822;SDS011;14852;51.910;8.878;2022-07-29T12:34:25;5.18;;;2.30;;
26822;SDS011;14852;51.910;8.878;2022-07-29T12:36:53;4.72;;;2.72;;
26822;SDS011;14852;51.910;8.878;2022-07-29T12:39:20;3.55;;;2.33;;
26822;SDS011;14852;51.910;8.878;2022-07-29T12:41:46;3.15;;;2.35;;
26822;SDS011;14852;51.910;8.878;2022-07-29T12:44:12;3.97;;;2.60;;
26822;SDS011;14852;51.910;8.878;2022-07-29T12:46:37;5.70;;;3.03;;
26822;SDS011;14852;51.910;8.878;2022-07-29T12:49:03;4.00;;;2.30;;
26822;SDS011;14852;51.910;8.878;2022-07-29T12:51:33;4.25;;;2.75;;
26822;SDS011;14852;51.910;8.878;2022-07-29T12:54:03;3.70;;;2.60;;
26822;SDS011;14852;51.910;8.878;2022-07-29T12:56:39;4.03;;;2.90;;
26822;SDS011;14852;51.910;8.878;2022-07-29T12:59:13;3.58;;;2.80;;
26822;SDS011;14852;51.910;8.878;2022-07-29T13:01:47;5.60;;;2.78;;
26822;SDS011;14852;51.910;8.878;2022-07-29T13:04:32;5.15;;;2.65;;
26822;SDS011;14852;51.910;8.878;2022-07-29T13:07:02;4.72;;;2.70;;
26822;SDS011;14852;51.910;8.878;2022-07-29T13:09:42;2.90;;;1.83;;
26822;SDS011;14852;51.910;8.878;2022-07-29T13:12:11;2.75;;;2.38;;
26822;SDS011;14852;51.910;8.878;2022-07-29T13:14:43;6.30;;;3.10;;
26822;SDS011;14852;51.910;8.878;2022-07-29T13:17:12;3.55;;;2.63;;
26822;SDS011;14852;51.910;8.878;2022-07-29T13:19:53;4.57;;;2.33;;
26822;SDS011;14852;51.910;8.878;2022-07-29T13:22:37;3.30;;;2.63;;
26822;SDS011;14852;51.910;8.878;2022-07-29T13:25:05;6.53;;;2.50;;
26822;SDS011;14852;51.910;8.878;2022-07-29T13:27:32;6.15;;;2.63;;
26822;SDS011;14852;51.910;8.878;2022-07-29T13:30:02;3.53;;;2.20;;
26822;SDS011;14852;51.910;8.878;2022-07-29T13:32:31;3.70;;;2.30;;
26822;SDS011;14852;51.910;8.878;2022-07-29T13:35:01;5.82;;;2.67;;
26822;SDS011;14852;51.910;8.878;2022-07-29T13:37:30;5.03;;;2.70;;
26822;SDS011;14852;51.910;8.878;2022-07-29T13:39:58;5.03;;;2.38;;
26822;SDS011;14852;51.910;8.878;2022-07-29T13:42:24;4.28;;;2.90;;
26822;SDS011;14852;51.910;8.878;2022-07-29T13:44:51;4.95;;;2.35;;
26822;SDS011;14852;51.910;8.878;2022-07-29T13:47:17;6.90;;;2.72;;
26822;SDS011;14852;51.910;8.878;2022-07-29T13:49:44;3.60;;;2.50;;
26822;SDS011;14852;51.910;8.878;2022-07-29T13:52:10;5.10;;;2.40;;
26822;SDS011;14852;51.910;8.878;2022-07-29T13:54:36;7.65;;;3.30;;
26822;SDS011;14852;51.910;8.878;2022-07-29T13:57:05;7.38;;;2.60;;
26822;SDS011;14852;51.910;8.878;2022-07-29T13:59:32;3.15;;;2.08;;
26822;SDS011;14852;51.910;8.878;2022-07-29T14:01:58;3.28;;;2.22;;
26822;SDS011;14852;51.910;8.878;2022-07-29T14:04:24;4.88;;;2.40;;
26822;SDS011;14852;51.910;8.878;2022-07-29T14:06:50;3.58;;;1.98;;
26822;SDS011;14852;51.910;8.878;2022-07-29T14:09:16;3.38;;;2.38;;
26822;SDS011;14852;51.910;8.878;2022-07-29T14:11:42;3.28;;;2.45;;
26822;SDS011;14852;51.910;8.878;2022-07-29T14:14:08;3.30;;;2.15;;
26822;SDS011;14852;51.910;8.878;2022-07-29T14:16:35;3.88;;;2.67;;
26822;SDS011;14852;51.910;8.878;2022-07-29T14:19:01;7.85;;;2.95;;
26822;SDS011;14852;51.910;8.878;2022-07-29T14:21:27;2.53;;;2.08;;
26822;SDS011;14852;51.910;8.878;2022-07-29T14:23:53;5.13;;;2.67;;
26822;SDS011;14852;51.910;8.878;2022-07-29T14:26:19;3.17;;;2.30;;
26822;SDS011;14852;51.910;8.878;2022-07-29T14:28:46;3.40;;;2.20;;
26822;SDS011;14852;51.910;8.878;2022-07-29T14:31:13;4.13;;;2.28;;
26822;SDS011;14852;51.910;8.878;2022-07-29T14:33:39;5.93;;;2.53;;
26822;SDS011;14852;51.910;8.878;2022-07-29T14:36:06;5.38;;;2.20;;
26822;SDS011;14852;51.910;8.878;2022-07-29T14:38:31;6.13;;;2.33;;
26822;SDS011;14852;51.910;8.878;2022-07-29T14:40:57;4.32;;;2.67;;
26822;SDS011;14852;51.910;8.878;2022-07-29T14:43:23;2.45;;;2.20;;
26822;SDS011;14852;51.910;8.878;2022-07-29T14:45:49;5.43;;;3.15;;
26822;SDS011;14852;51.910;8.878;2022-07-29T14:48:14;5.10;;;3.20;;
26822;SDS011;14852;51.910;8.878;2022-07-29T14:50:40;6.25;;;2.95;;
26822;SDS011;14852;51.910;8.878;2022-07-29T14:53:06;3.10;;;2.75;;
26822;SDS011;14852;51.910;8.878;2022-07-29T14:55:32;4.53;;;3.05;;
26822;SDS011;14852;51.910;8.878;2022-07-29T14:57:57;3.55;;;2.80;;
26822;SDS011;14852;51.910;8.878;2022-07-29T15:00:24;4.00;;;2.63;;
26822;SDS011;14852;51.910;8.878;2022-07-29T15:02:50;4.25;;;2.65;;
26822;SDS011;14852;51.910;8.878;2022-07-29T15:05:16;3.97;;;2.78;;
26822;SDS011;14852;51.910;8.878;2022-07-29T15:07:42;8.35;;;2.85;;
26822;SDS011;14852;51.910;8.878;2022-07-29T15:10:08;3.38;;;2.30;;
26822;SDS011;14852;51.910;8.878;2022-07-29T15:12:34;2.97;;;2.55;;
26822;SDS011;14852;51.910;8.878;2022-07-29T15:14:59;3.55;;;2.58;;
26822;SDS011;14852;51.910;8.878;2022-07-29T15:17:25;5.20;;;2.55;;
26822;SDS011;14852;51.910;8.878;2022-07-29T15:19:51;3.33;;;2.78;;
26822;SDS011;14852;51.910;8.878;2022-07-29T15:22:17;9.48;;;3.72;;
26822;SDS011;14852;51.910;8.878;2022-07-29T15:24:43;6.28;;;3.38;;
26822;SDS011;14852;51.910;8.878;2022-07-29T15:27:10;5.03;;;2.65;;
26822;SDS011;14852;51.910;8.878;2022-07-29T15:29:41;5.97;;;3.37;;
26822;SDS011;14852;51.910;8.878;2022-07-29T15:32:08;5.05;;;2.67;;
26822;SDS011;14852;51.910;8.878;2022-07-29T15:34:35;4.50;;;3.25;;
26822;SDS011;14852;51.910;8.878;2022-07-29T15:37:02;4.35;;;2.50;;
26822;SDS011;14852;51.910;8.878;2022-07-29T15:39:29;3.03;;;2.55;;
26822;SDS011;14852;51.910;8.878;2022-07-29T15:41:55;5.22;;;2.92;;
26822;SDS011;14852;51.910;8.878;2022-07-29T15:44:20;4.95;;;2.92;;
26822;SDS011;14852;51.910;8.878;2022-07-29T15:46:47;3.05;;;2.63;;
26822;SDS011;14852;51.910;8.878;2022-07-29T15:49:30;5.50;;;2.20;;
26822;SDS011;14852;51.910;8.878;2022-07-29T15:51:59;4.78;;;2.92;;
26822;SDS011;14852;51.910;8.878;2022-07-29T15:54:28;7.10;;;2.95;;
26822;SDS011;14852;51.910;8.878;2022-07-29T15:56:54;3.60;;;2.60;;
26822;SDS011;14852;51.910;8.878;2022-07-29T15:59:21;3.78;;;2.75;;
26822;SDS011;14852;51.910;8.878;2022-07-29T16:01:47;2.88;;;2.65;;
26822;SDS011;14852;51.910;8.878;2022-07-29T16:04:14;6.72;;;3.05;;
26822;SDS011;14852;51.910;8.878;2022-07-29T16:06:41;3.58;;;2.53;;